sensor_id;sensor_type;location;lat;lon;timestamp;P1;durP1;ratioP1;P2;durP2;ratioP2
7879;SDS011;3985;49.366;2.738;2022-12-18T00:01:22;76.00;;;64.00;;
7879;SDS011;3985;49.366;2.738;2022-12-18T00:03:50;75.25;;;61.25;;
7879;SDS011;3985;49.366;2.738;2022-12-18T00:06:19;65.50;;;55.00;;
7879;SDS011;3985;49.366;2.738;2022-12-18T00:08:47;84.25;;;66.75;;
7879;SDS011;3985;49.366;2.738;2022-12-18T00:11:20;77.00;;;62.75;;
7879;SDS011;3985;49.366;2.738;2022-12-18T00:13:48;60.50;;;53.25;;
7879;SDS011;3985;49.366;2.738;2022-12-18T00:16:17;50.00;;;48.00;;
7879;SDS011;3985;49.366;2.738;2022-12-18T00:18:46;69.00;;;59.00;;
7879;SDS011;3985;49.366;2.738;2022-12-18T00:21:14;65.00;;;56.25;;
7879;SDS011;3985;49.366;2.738;2022-12-18T00:23:44;67.25;;;58.25;;
7879;SDS011;3985;49.366;2.738;2022-12-18T00:26:12;68.50;;;58.25;;
7879;SDS011;3985;49.366;2.738;2022-12-18T00:28:43;67.25;;;58.00;;
7879;SDS011;3985;49.366;2.738;2022-12-18T00:31:11;73.50;;;61.75;;
7879;SDS011;3985;49.366;2.738;2022-12-18T00:33:39;64.50;;;54.25;;
7879;SDS011;3985;49.366;2.738;2022-12-18T00:36:08;75.00;;;61.00;;
7879;SDS011;3985;49.366;2.738;2022-12-18T00:38:37;66.25;;;57.25;;
7879;SDS011;3985;49.366;2.738;2022-12-18T00:41:05;69.25;;;58.25;;
7879;SDS011;3985;49.366;2.738;2022-12-18T00:43:33;72.50;;;60.00;;
7879;SDS011;3985;49.366;2.738;2022-12-18T00:46:01;74.25;;;62.00;;
7879;SDS011;3985;49.366;2.738;2022-12-18T00:48:29;68.00;;;55.25;;
7879;SDS011;3985;49.366;2.738;2022-12-18T00:50:56;71.00;;;59.50;;
7879;SDS011;3985;49.366;2.738;2022-12-18T00:53:24;68.75;;;56.25;;
7879;SDS011;3985;49.366;2.738;2022-12-18T00:55:51;62.25;;;54.00;;
7879;SDS011;3985;49.366;2.738;2022-12-18T00:58:19;75.75;;;59.25;;
7879;SDS011;3985;49.366;2.738;2022-12-18T01:00:46;61.00;;;52.75;;
7879;SDS011;3985;49.366;2.738;2022-12-18T01:03:15;69.00;;;58.00;;
7879;SDS011;3985;49.366;2.738;2022-12-18T01:05:43;66.25;;;55.75;;
7879;SDS011;3985;49.366;2.738;2022-12-18T01:08:10;67.00;;;57.00;;
7879;SDS011;3985;49.366;2.738;2022-12-18T01:10:39;68.75;;;58.00;;
7879;SDS011;3985;49.366;2.738;2022-12-18T01:13:07;74.50;;;61.00;;
7879;SDS011;3985;49.366;2.738;2022-12-18T01:15:37;64.25;;;55.50;;
7879;SDS011;3985;49.366;2.738;2022-12-18T01:18:05;68.75;;;58.25;;
7879;SDS011;3985;49.366;2.738;2022-12-18T01:20:36;69.50;;;59.25;;
7879;SDS011;3985;49.366;2.738;2022-12-18T01:23:04;64.50;;;55.25;;
7879;SDS011;3985;49.366;2.738;2022-12-18T01:25:32;66.00;;;55.00;;
7879;SDS011;3985;49.366;2.738;2022-12-18T01:28:01;51.50;;;47.75;;
7879;SDS011;3985;49.366;2.738;2022-12-18T01:30:29;74.50;;;61.75;;
7879;SDS011;3985;49.366;2.738;2022-12-18T01:32:56;69.00;;;58.50;;
7879;SDS011;3985;49.366;2.738;2022-12-18T01:35:24;67.50;;;57.50;;
7879;SDS011;3985;49.366;2.738;2022-12-18T01:37:55;72.75;;;60.75;;
7879;SDS011;3985;49.366;2.738;2022-12-18T01:40:22;67.75;;;58.75;;
7879;SDS011;3985;49.366;2.738;2022-12-18T01:42:50;76.75;;;62.00;;
7879;SDS011;3985;49.366;2.738;2022-12-18T01:45:21;58.75;;;49.25;;
7879;SDS011;3985;49.366;2.738;2022-12-18T01:47:52;70.75;;;60.00;;
7879;SDS011;3985;49.366;2.738;2022-12-18T01:50:21;67.25;;;58.25;;
7879;SDS011;3985;49.366;2.738;2022-12-18T01:52:52;61.75;;;52.75;;
7879;SDS011;3985;49.366;2.738;2022-12-18T01:55:23;62.25;;;54.50;;
7879;SDS011;3985;49.366;2.738;2022-12-18T01:57:53;75.25;;;61.00;;
7879;SDS011;3985;49.366;2.738;2022-12-18T02:00:24;63.75;;;55.00;;
7879;SDS011;3985;49.366;2.738;2022-12-18T02:02:54;70.00;;;58.25;;
7879;SDS011;3985;49.366;2.738;2022-12-18T02:05:24;56.50;;;51.00;;
7879;SDS011;3985;49.366;2.738;2022-12-18T02:08:12;68.00;;;55.50;;
7879;SDS011;3985;49.366;2.738;2022-12-18T02:10:46;59.25;;;51.50;;
7879;SDS011;3985;49.366;2.738;2022-12-18T02:13:19;62.25;;;53.00;;
7879;SDS011;3985;49.366;2.738;2022-12-18T02:15:51;68.75;;;57.50;;
7879;SDS011;3985;49.366;2.738;2022-12-18T02:18:24;65.25;;;55.50;;
7879;SDS011;3985;49.366;2.738;2022-12-18T02:20:55;63.25;;;55.25;;
7879;SDS011;3985;49.366;2.738;2022-12-18T02:23:34;66.75;;;56.50;;
7879;SDS011;3985;49.366;2.738;2022-12-18T02:26:12;68.00;;;56.00;;
7879;SDS011;3985;49.366;2.738;2022-12-18T02:28:44;59.25;;;52.50;;
7879;SDS011;3985;49.366;2.738;2022-12-18T02:31:14;57.25;;;51.75;;
7879;SDS011;3985;49.366;2.738;2022-12-18T02:33:44;60.25;;;52.00;;
7879;SDS011;3985;49.366;2.738;2022-12-18T02:36:12;57.00;;;51.50;;
7879;SDS011;3985;49.366;2.738;2022-12-18T02:38:41;66.25;;;55.25;;
7879;SDS011;3985;49.366;2.738;2022-12-18T02:41:09;61.25;;;53.50;;
7879;SDS011;3985;49.366;2.738;2022-12-18T02:43:39;65.50;;;53.75;;
7879;SDS011;3985;49.366;2.738;2022-12-18T02:49:01;59.75;;;53.00;;
7879;SDS011;3985;49.366;2.738;2022-12-18T02:51:37;68.75;;;57.75;;
7879;SDS011;3985;49.366;2.738;2022-12-18T02:54:10;60.25;;;51.25;;
7879;SDS011;3985;49.366;2.738;2022-12-18T02:56:45;61.00;;;52.25;;
7879;SDS011;3985;49.366;2.738;2022-12-18T02:59:16;62.00;;;54.00;;
7879;SDS011;3985;49.366;2.738;2022-12-18T03:01:49;68.75;;;58.50;;
7879;SDS011;3985;49.366;2.738;2022-12-18T03:04:20;69.75;;;57.75;;
7879;SDS011;3985;49.366;2.738;2022-12-18T03:06:53;68.75;;;57.50;;
7879;SDS011;3985;49.366;2.738;2022-12-18T03:09:24;54.75;;;49.75;;
7879;SDS011;3985;49.366;2.738;2022-12-18T03:11:58;65.00;;;53.75;;
7879;SDS011;3985;49.366;2.738;2022-12-18T03:14:52;65.00;;;55.25;;
7879;SDS011;3985;49.366;2.738;2022-12-18T03:17:23;70.00;;;59.25;;
7879;SDS011;3985;49.366;2.738;2022-12-18T03:19:54;63.50;;;53.50;;
7879;SDS011;3985;49.366;2.738;2022-12-18T03:22:25;68.50;;;57.75;;
7879;SDS011;3985;49.366;2.738;2022-12-18T03:24:54;60.25;;;52.50;;
7879;SDS011;3985;49.366;2.738;2022-12-18T03:27:23;67.25;;;56.50;;
7879;SDS011;3985;49.366;2.738;2022-12-18T03:29:54;67.25;;;56.75;;
7879;SDS011;3985;49.366;2.738;2022-12-18T03:32:33;62.75;;;52.50;;
7879;SDS011;3985;49.366;2.738;2022-12-18T03:35:03;56.75;;;51.00;;
7879;SDS011;3985;49.366;2.738;2022-12-18T03:37:32;69.75;;;54.50;;
7879;SDS011;3985;49.366;2.738;2022-12-18T03:40:01;56.25;;;51.00;;
7879;SDS011;3985;49.366;2.738;2022-12-18T03:42:29;54.00;;;49.50;;
7879;SDS011;3985;49.366;2.738;2022-12-18T03:45:06;62.75;;;53.75;;
7879;SDS011;3985;49.366;2.738;2022-12-18T03:47:38;70.00;;;56.25;;
7879;SDS011;3985;49.366;2.738;2022-12-18T03:50:10;59.50;;;52.00;;
7879;SDS011;3985;49.366;2.738;2022-12-18T03:52:41;62.75;;;54.00;;
7879;SDS011;3985;49.366;2.738;2022-12-18T03:55:14;65.50;;;56.50;;
7879;SDS011;3985;49.366;2.738;2022-12-18T03:57:43;57.50;;;51.25;;
7879;SDS011;3985;49.366;2.738;2022-12-18T04:00:15;63.50;;;54.75;;
7879;SDS011;3985;49.366;2.738;2022-12-18T04:02:46;65.50;;;55.00;;
7879;SDS011;3985;49.366;2.738;2022-12-18T04:05:16;61.50;;;53.00;;
7879;SDS011;3985;49.366;2.738;2022-12-18T04:07:44;56.25;;;48.25;;
7879;SDS011;3985;49.366;2.738;2022-12-18T04:10:12;70.50;;;60.00;;
7879;SDS011;3985;49.366;2.738;2022-12-18T04:12:41;62.50;;;53.25;;
7879;SDS011;3985;49.366;2.738;2022-12-18T04:15:09;49.00;;;45.75;;
7879;SDS011;3985;49.366;2.738;2022-12-18T04:17:39;61.25;;;51.00;;
7879;SDS011;3985;49.366;2.738;2022-12-18T04:20:13;57.25;;;51.00;;
7879;SDS011;3985;49.366;2.738;2022-12-18T04:22:40;61.50;;;53.00;;
7879;SDS011;3985;49.366;2.738;2022-12-18T04:25:08;67.00;;;58.00;;
7879;SDS011;3985;49.366;2.738;2022-12-18T04:27:38;70.00;;;58.00;;
7879;SDS011;3985;49.366;2.738;2022-12-18T04:30:06;70.50;;;56.00;;
7879;SDS011;3985;49.366;2.738;2022-12-18T04:32:34;72.25;;;61.75;;
7879;SDS011;3985;49.366;2.738;2022-12-18T04:35:04;60.50;;;54.00;;
7879;SDS011;3985;49.366;2.738;2022-12-18T04:37:35;68.50;;;57.75;;
7879;SDS011;3985;49.366;2.738;2022-12-18T04:40:04;74.00;;;60.75;;
7879;SDS011;3985;49.366;2.738;2022-12-18T04:42:32;58.50;;;52.00;;
7879;SDS011;3985;49.366;2.738;2022-12-18T04:45:00;66.50;;;54.50;;
7879;SDS011;3985;49.366;2.738;2022-12-18T04:47:27;54.25;;;48.75;;
7879;SDS011;3985;49.366;2.738;2022-12-18T04:49:55;70.00;;;58.00;;
7879;SDS011;3985;49.366;2.738;2022-12-18T04:52:24;64.75;;;56.00;;
7879;SDS011;3985;49.366;2.738;2022-12-18T04:54:51;67.25;;;54.25;;
7879;SDS011;3985;49.366;2.738;2022-12-18T04:57:19;67.25;;;55.75;;
7879;SDS011;3985;49.366;2.738;2022-12-18T04:59:48;76.25;;;62.75;;
7879;SDS011;3985;49.366;2.738;2022-12-18T05:02:15;69.00;;;58.75;;
7879;SDS011;3985;49.366;2.738;2022-12-18T05:04:43;70.00;;;58.50;;
7879;SDS011;3985;49.366;2.738;2022-12-18T05:07:10;69.50;;;59.00;;
7879;SDS011;3985;49.366;2.738;2022-12-18T05:09:40;65.75;;;56.25;;
7879;SDS011;3985;49.366;2.738;2022-12-18T05:12:07;52.75;;;48.00;;
7879;SDS011;3985;49.366;2.738;2022-12-18T05:14:35;72.75;;;58.50;;
7879;SDS011;3985;49.366;2.738;2022-12-18T05:17:02;66.00;;;56.25;;
7879;SDS011;3985;49.366;2.738;2022-12-18T05:19:30;71.25;;;61.00;;
7879;SDS011;3985;49.366;2.738;2022-12-18T05:21:57;70.75;;;60.00;;
7879;SDS011;3985;49.366;2.738;2022-12-18T05:24:26;57.00;;;51.75;;
7879;SDS011;3985;49.366;2.738;2022-12-18T05:26:55;65.75;;;56.50;;
7879;SDS011;3985;49.366;2.738;2022-12-18T05:29:22;65.75;;;54.50;;
7879;SDS011;3985;49.366;2.738;2022-12-18T05:31:50;70.50;;;60.00;;
7879;SDS011;3985;49.366;2.738;2022-12-18T05:34:18;61.75;;;53.50;;
7879;SDS011;3985;49.366;2.738;2022-12-18T05:36:45;73.00;;;61.75;;
7879;SDS011;3985;49.366;2.738;2022-12-18T05:39:12;68.50;;;59.25;;
7879;SDS011;3985;49.366;2.738;2022-12-18T05:41:40;67.25;;;57.25;;
7879;SDS011;3985;49.366;2.738;2022-12-18T05:44:09;52.75;;;49.00;;
7879;SDS011;3985;49.366;2.738;2022-12-18T05:46:36;69.75;;;58.50;;
7879;SDS011;3985;49.366;2.738;2022-12-18T05:49:07;54.50;;;49.00;;
7879;SDS011;3985;49.366;2.738;2022-12-18T05:51:37;73.00;;;58.75;;
7879;SDS011;3985;49.366;2.738;2022-12-18T05:54:05;67.50;;;57.00;;
7879;SDS011;3985;49.366;2.738;2022-12-18T05:56:32;67.00;;;57.00;;
7879;SDS011;3985;49.366;2.738;2022-12-18T05:58:59;73.00;;;62.00;;
7879;SDS011;3985;49.366;2.738;2022-12-18T06:01:29;71.50;;;59.25;;
7879;SDS011;3985;49.366;2.738;2022-12-18T06:03:57;70.25;;;60.50;;
7879;SDS011;3985;49.366;2.738;2022-12-18T06:06:25;70.50;;;57.00;;
7879;SDS011;3985;49.366;2.738;2022-12-18T06:08:54;67.75;;;55.50;;
7879;SDS011;3985;49.366;2.738;2022-12-18T06:11:23;70.00;;;54.50;;
7879;SDS011;3985;49.366;2.738;2022-12-18T06:13:53;62.25;;;54.00;;
7879;SDS011;3985;49.366;2.738;2022-12-18T06:16:21;67.75;;;58.00;;
7879;SDS011;3985;49.366;2.738;2022-12-18T06:18:53;56.25;;;49.25;;
7879;SDS011;3985;49.366;2.738;2022-12-18T06:21:22;65.25;;;56.25;;
7879;SDS011;3985;49.366;2.738;2022-12-18T06:23:50;52.00;;;47.25;;
7879;SDS011;3985;49.366;2.738;2022-12-18T06:26:17;67.75;;;57.75;;
7879;SDS011;3985;49.366;2.738;2022-12-18T06:28:46;69.00;;;56.50;;
7879;SDS011;3985;49.366;2.738;2022-12-18T06:31:14;71.75;;;59.25;;
7879;SDS011;3985;49.366;2.738;2022-12-18T06:33:42;57.75;;;49.75;;
7879;SDS011;3985;49.366;2.738;2022-12-18T06:36:12;54.75;;;50.25;;
7879;SDS011;3985;49.366;2.738;2022-12-18T06:38:42;64.50;;;55.50;;
7879;SDS011;3985;49.366;2.738;2022-12-18T06:41:12;71.75;;;59.75;;
7879;SDS011;3985;49.366;2.738;2022-12-18T06:43:41;61.75;;;51.75;;
7879;SDS011;3985;49.366;2.738;2022-12-18T06:46:09;67.00;;;58.00;;
7879;SDS011;3985;49.366;2.738;2022-12-18T06:48:41;53.00;;;47.50;;
7879;SDS011;3985;49.366;2.738;2022-12-18T06:51:08;64.00;;;52.00;;
7879;SDS011;3985;49.366;2.738;2022-12-18T06:53:38;63.75;;;52.00;;
7879;SDS011;3985;49.366;2.738;2022-12-18T06:56:08;65.50;;;53.50;;
7879;SDS011;3985;49.366;2.738;2022-12-18T06:58:38;63.25;;;54.00;;
7879;SDS011;3985;49.366;2.738;2022-12-18T07:01:06;64.75;;;54.75;;
7879;SDS011;3985;49.366;2.738;2022-12-18T07:03:35;62.75;;;52.00;;
7879;SDS011;3985;49.366;2.738;2022-12-18T07:06:03;65.50;;;56.75;;
7879;SDS011;3985;49.366;2.738;2022-12-18T07:08:31;60.50;;;52.75;;
7879;SDS011;3985;49.366;2.738;2022-12-18T07:11:02;60.25;;;53.00;;
7879;SDS011;3985;49.366;2.738;2022-12-18T07:13:33;60.50;;;49.75;;
7879;SDS011;3985;49.366;2.738;2022-12-18T07:16:05;72.25;;;60.25;;
7879;SDS011;3985;49.366;2.738;2022-12-18T07:18:34;72.00;;;57.25;;
7879;SDS011;3985;49.366;2.738;2022-12-18T07:21:05;72.50;;;61.75;;
7879;SDS011;3985;49.366;2.738;2022-12-18T07:23:34;65.75;;;55.50;;
7879;SDS011;3985;49.366;2.738;2022-12-18T07:26:06;70.25;;;59.25;;
7879;SDS011;3985;49.366;2.738;2022-12-18T07:28:34;72.75;;;60.50;;
7879;SDS011;3985;49.366;2.738;2022-12-18T07:31:05;84.00;;;69.00;;
7879;SDS011;3985;49.366;2.738;2022-12-18T07:33:34;83.50;;;68.75;;
7879;SDS011;3985;49.366;2.738;2022-12-18T07:36:03;84.00;;;66.50;;
7879;SDS011;3985;49.366;2.738;2022-12-18T07:38:32;92.00;;;71.75;;
7879;SDS011;3985;49.366;2.738;2022-12-18T07:41:01;90.25;;;71.50;;
7879;SDS011;3985;49.366;2.738;2022-12-18T07:43:32;80.00;;;65.00;;
7879;SDS011;3985;49.366;2.738;2022-12-18T07:46:00;84.50;;;67.25;;
7879;SDS011;3985;49.366;2.738;2022-12-18T07:48:28;86.25;;;69.00;;
7879;SDS011;3985;49.366;2.738;2022-12-18T07:50:58;81.50;;;64.25;;
7879;SDS011;3985;49.366;2.738;2022-12-18T07:53:26;83.00;;;67.75;;
7879;SDS011;3985;49.366;2.738;2022-12-18T07:55:54;87.75;;;70.75;;
7879;SDS011;3985;49.366;2.738;2022-12-18T07:58:23;75.75;;;64.50;;
7879;SDS011;3985;49.366;2.738;2022-12-18T08:00:52;83.00;;;69.50;;
7879;SDS011;3985;49.366;2.738;2022-12-18T08:03:28;74.00;;;63.75;;
7879;SDS011;3985;49.366;2.738;2022-12-18T08:05:57;72.25;;;60.00;;
7879;SDS011;3985;49.366;2.738;2022-12-18T08:08:26;72.25;;;59.75;;
7879;SDS011;3985;49.366;2.738;2022-12-18T08:10:54;73.50;;;62.75;;
7879;SDS011;3985;49.366;2.738;2022-12-18T08:13:22;84.50;;;70.50;;
7879;SDS011;3985;49.366;2.738;2022-12-18T08:15:59;82.00;;;68.50;;
7879;SDS011;3985;49.366;2.738;2022-12-18T08:18:27;74.25;;;63.50;;
7879;SDS011;3985;49.366;2.738;2022-12-18T08:20:55;77.75;;;63.25;;
7879;SDS011;3985;49.366;2.738;2022-12-18T08:23:23;73.25;;;59.00;;
7879;SDS011;3985;49.366;2.738;2022-12-18T08:25:50;75.25;;;64.50;;
7879;SDS011;3985;49.366;2.738;2022-12-18T08:28:18;90.00;;;71.00;;
7879;SDS011;3985;49.366;2.738;2022-12-18T08:30:45;92.25;;;73.75;;
7879;SDS011;3985;49.366;2.738;2022-12-18T08:33:14;95.25;;;77.50;;
7879;SDS011;3985;49.366;2.738;2022-12-18T08:35:42;91.25;;;74.75;;
7879;SDS011;3985;49.366;2.738;2022-12-18T08:40:58;80.25;;;67.75;;
7879;SDS011;3985;49.366;2.738;2022-12-18T08:43:29;78.75;;;66.00;;
7879;SDS011;3985;49.366;2.738;2022-12-18T08:46:14;71.25;;;59.50;;
7879;SDS011;3985;49.366;2.738;2022-12-18T08:48:44;82.50;;;67.50;;
7879;SDS011;3985;49.366;2.738;2022-12-18T08:51:12;83.25;;;68.25;;
7879;SDS011;3985;49.366;2.738;2022-12-18T08:53:39;79.50;;;64.50;;
7879;SDS011;3985;49.366;2.738;2022-12-18T08:56:07;83.25;;;68.50;;
7879;SDS011;3985;49.366;2.738;2022-12-18T08:58:34;78.25;;;63.00;;
7879;SDS011;3985;49.366;2.738;2022-12-18T09:01:02;78.50;;;66.00;;
7879;SDS011;3985;49.366;2.738;2022-12-18T09:03:31;79.50;;;63.75;;
7879;SDS011;3985;49.366;2.738;2022-12-18T09:06:01;101.75;;;78.75;;
7879;SDS011;3985;49.366;2.738;2022-12-18T09:08:29;90.25;;;72.00;;
7879;SDS011;3985;49.366;2.738;2022-12-18T09:11:01;101.50;;;81.25;;
7879;SDS011;3985;49.366;2.738;2022-12-18T09:13:29;86.00;;;68.25;;
7879;SDS011;3985;49.366;2.738;2022-12-18T09:15:56;82.25;;;68.50;;
7879;SDS011;3985;49.366;2.738;2022-12-18T09:18:24;75.50;;;63.50;;
7879;SDS011;3985;49.366;2.738;2022-12-18T09:20:51;80.00;;;65.00;;
7879;SDS011;3985;49.366;2.738;2022-12-18T09:23:20;71.75;;;60.25;;
7879;SDS011;3985;49.366;2.738;2022-12-18T09:25:48;64.50;;;55.00;;
7879;SDS011;3985;49.366;2.738;2022-12-18T09:28:19;75.25;;;63.25;;
7879;SDS011;3985;49.366;2.738;2022-12-18T09:31:04;53.50;;;49.25;;
7879;SDS011;3985;49.366;2.738;2022-12-18T09:33:32;73.25;;;60.50;;
7879;SDS011;3985;49.366;2.738;2022-12-18T09:36:01;70.50;;;58.00;;
7879;SDS011;3985;49.366;2.738;2022-12-18T09:38:31;72.50;;;60.75;;
7879;SDS011;3985;49.366;2.738;2022-12-18T09:40:59;59.00;;;50.00;;
7879;SDS011;3985;49.366;2.738;2022-12-18T09:43:31;71.25;;;60.50;;
7879;SDS011;3985;49.366;2.738;2022-12-18T09:46:06;70.75;;;57.75;;
7879;SDS011;3985;49.366;2.738;2022-12-18T09:48:36;55.00;;;48.75;;
7879;SDS011;3985;49.366;2.738;2022-12-18T09:51:10;50.75;;;45.50;;
7879;SDS011;3985;49.366;2.738;2022-12-18T09:53:42;59.25;;;53.00;;
7879;SDS011;3985;49.366;2.738;2022-12-18T09:56:15;68.25;;;55.00;;
7879;SDS011;3985;49.366;2.738;2022-12-18T09:58:47;65.75;;;55.50;;
7879;SDS011;3985;49.366;2.738;2022-12-18T10:01:25;63.75;;;55.25;;
7879;SDS011;3985;49.366;2.738;2022-12-18T10:03:54;45.75;;;44.50;;
7879;SDS011;3985;49.366;2.738;2022-12-18T10:06:22;52.00;;;47.00;;
7879;SDS011;3985;49.366;2.738;2022-12-18T10:08:56;60.75;;;52.00;;
7879;SDS011;3985;49.366;2.738;2022-12-18T10:11:32;56.00;;;48.50;;
7879;SDS011;3985;49.366;2.738;2022-12-18T10:14:07;53.00;;;48.25;;
7879;SDS011;3985;49.366;2.738;2022-12-18T10:16:41;54.25;;;50.50;;
7879;SDS011;3985;49.366;2.738;2022-12-18T10:19:20;48.50;;;46.25;;
7879;SDS011;3985;49.366;2.738;2022-12-18T10:21:57;48.25;;;46.50;;
7879;SDS011;3985;49.366;2.738;2022-12-18T10:24:35;56.50;;;50.25;;
7879;SDS011;3985;49.366;2.738;2022-12-18T10:27:11;58.50;;;51.75;;
7879;SDS011;3985;49.366;2.738;2022-12-18T10:29:40;65.75;;;53.50;;
7879;SDS011;3985;49.366;2.738;2022-12-18T10:32:09;48.75;;;43.75;;
7879;SDS011;3985;49.366;2.738;2022-12-18T10:34:41;58.25;;;48.50;;
7879;SDS011;3985;49.366;2.738;2022-12-18T10:37:12;55.25;;;45.75;;
7879;SDS011;3985;49.366;2.738;2022-12-18T10:39:45;41.50;;;41.50;;
7879;SDS011;3985;49.366;2.738;2022-12-18T10:42:16;45.50;;;44.75;;
7879;SDS011;3985;49.366;2.738;2022-12-18T10:44:45;49.50;;;45.25;;
7879;SDS011;3985;49.366;2.738;2022-12-18T10:47:14;49.25;;;46.50;;
7879;SDS011;3985;49.366;2.738;2022-12-18T10:49:47;49.00;;;46.25;;
7879;SDS011;3985;49.366;2.738;2022-12-18T10:52:17;51.50;;;43.25;;
7879;SDS011;3985;49.366;2.738;2022-12-18T10:54:48;40.50;;;40.50;;
7879;SDS011;3985;49.366;2.738;2022-12-18T10:57:27;45.75;;;42.75;;
7879;SDS011;3985;49.366;2.738;2022-12-18T10:59:58;51.25;;;46.00;;
7879;SDS011;3985;49.366;2.738;2022-12-18T11:02:34;46.25;;;44.00;;
7879;SDS011;3985;49.366;2.738;2022-12-18T11:05:07;49.75;;;46.50;;
7879;SDS011;3985;49.366;2.738;2022-12-18T11:07:50;39.25;;;38.25;;
7879;SDS011;3985;49.366;2.738;2022-12-18T11:10:21;53.00;;;45.75;;
7879;SDS011;3985;49.366;2.738;2022-12-18T11:12:51;48.75;;;42.50;;
7879;SDS011;3985;49.366;2.738;2022-12-18T11:15:20;57.50;;;50.00;;
7879;SDS011;3985;49.366;2.738;2022-12-18T11:17:48;58.25;;;51.50;;
7879;SDS011;3985;49.366;2.738;2022-12-18T11:20:21;41.00;;;41.00;;
7879;SDS011;3985;49.366;2.738;2022-12-18T11:22:55;52.50;;;47.50;;
7879;SDS011;3985;49.366;2.738;2022-12-18T11:25:27;45.00;;;42.50;;
7879;SDS011;3985;49.366;2.738;2022-12-18T11:27:56;49.50;;;47.25;;
7879;SDS011;3985;49.366;2.738;2022-12-18T11:30:26;43.25;;;43.25;;
7879;SDS011;3985;49.366;2.738;2022-12-18T11:32:56;43.00;;;42.75;;
7879;SDS011;3985;49.366;2.738;2022-12-18T11:35:32;41.25;;;41.25;;
7879;SDS011;3985;49.366;2.738;2022-12-18T11:38:05;49.00;;;41.75;;
7879;SDS011;3985;49.366;2.738;2022-12-18T11:40:40;43.50;;;43.50;;
7879;SDS011;3985;49.366;2.738;2022-12-18T11:43:10;44.00;;;42.25;;
7879;SDS011;3985;49.366;2.738;2022-12-18T11:45:43;53.25;;;48.25;;
7879;SDS011;3985;49.366;2.738;2022-12-18T11:48:15;44.00;;;43.25;;
7879;SDS011;3985;49.366;2.738;2022-12-18T11:50:48;50.25;;;44.75;;
7879;SDS011;3985;49.366;2.738;2022-12-18T11:53:17;37.25;;;37.25;;
7879;SDS011;3985;49.366;2.738;2022-12-18T11:55:53;35.00;;;35.00;;
7879;SDS011;3985;49.366;2.738;2022-12-18T11:58:34;47.75;;;43.75;;
7879;SDS011;3985;49.366;2.738;2022-12-18T12:01:13;51.33;;;47.00;;
7879;SDS011;3985;49.366;2.738;2022-12-18T12:07:00;49.67;;;42.00;;
7879;SDS011;3985;49.366;2.738;2022-12-18T12:09:35;57.00;;;42.00;;
7879;SDS011;3985;49.366;2.738;2022-12-18T12:12:13;50.00;;;40.00;;
7879;SDS011;3985;49.366;2.738;2022-12-18T12:14:53;32.33;;;32.33;;
7879;SDS011;3985;49.366;2.738;2022-12-18T12:17:27;48.00;;;43.00;;
7879;SDS011;3985;49.366;2.738;2022-12-18T12:20:02;55.33;;;49.00;;
7879;SDS011;3985;49.366;2.738;2022-12-18T12:22:37;45.33;;;43.33;;
7879;SDS011;3985;49.366;2.738;2022-12-18T12:28:04;45.00;;;39.00;;
7879;SDS011;3985;49.366;2.738;2022-12-18T12:30:42;53.67;;;45.67;;
7879;SDS011;3985;49.366;2.738;2022-12-18T12:33:20;53.00;;;43.00;;
7879;SDS011;3985;49.366;2.738;2022-12-18T12:35:57;46.00;;;43.33;;
7879;SDS011;3985;49.366;2.738;2022-12-18T12:38:33;47.67;;;37.00;;
7879;SDS011;3985;49.366;2.738;2022-12-18T12:41:06;41.67;;;39.33;;
7879;SDS011;3985;49.366;2.738;2022-12-18T12:43:57;54.67;;;45.33;;
7879;SDS011;3985;49.366;2.738;2022-12-18T12:46:26;50.00;;;35.33;;
7879;SDS011;3985;49.366;2.738;2022-12-18T12:48:54;50.33;;;40.33;;
7879;SDS011;3985;49.366;2.738;2022-12-18T12:51:23;70.33;;;54.00;;
7879;SDS011;3985;49.366;2.738;2022-12-18T12:53:54;52.67;;;46.00;;
7879;SDS011;3985;49.366;2.738;2022-12-18T12:56:32;44.67;;;40.00;;
7879;SDS011;3985;49.366;2.738;2022-12-18T12:59:09;51.67;;;43.33;;
7879;SDS011;3985;49.366;2.738;2022-12-18T13:01:40;46.67;;;43.67;;
7879;SDS011;3985;49.366;2.738;2022-12-18T13:04:18;34.67;;;34.67;;
7879;SDS011;3985;49.366;2.738;2022-12-18T13:06:52;45.33;;;42.00;;
7879;SDS011;3985;49.366;2.738;2022-12-18T13:09:23;43.33;;;42.67;;
7879;SDS011;3985;49.366;2.738;2022-12-18T13:11:51;41.33;;;40.33;;
7879;SDS011;3985;49.366;2.738;2022-12-18T13:14:37;32.00;;;32.00;;
7879;SDS011;3985;49.366;2.738;2022-12-18T13:20:02;48.67;;;43.00;;
7879;SDS011;3985;49.366;2.738;2022-12-18T13:22:42;50.33;;;42.33;;
7879;SDS011;3985;49.366;2.738;2022-12-18T13:28:03;37.33;;;35.33;;
7879;SDS011;3985;49.366;2.738;2022-12-18T13:30:46;58.33;;;48.67;;
7879;SDS011;3985;49.366;2.738;2022-12-18T13:36:26;52.67;;;43.67;;
7879;SDS011;3985;49.366;2.738;2022-12-18T13:48:27;42.33;;;39.33;;
7879;SDS011;3985;49.366;2.738;2022-12-18T13:50:59;49.67;;;39.00;;
7879;SDS011;3985;49.366;2.738;2022-12-18T13:53:29;46.67;;;39.67;;
7879;SDS011;3985;49.366;2.738;2022-12-18T13:56:00;42.33;;;41.67;;
7879;SDS011;3985;49.366;2.738;2022-12-18T13:58:29;43.00;;;38.67;;
7879;SDS011;3985;49.366;2.738;2022-12-18T14:00:56;42.67;;;39.33;;
7879;SDS011;3985;49.366;2.738;2022-12-18T14:03:25;42.00;;;38.67;;
7879;SDS011;3985;49.366;2.738;2022-12-18T14:05:59;39.33;;;35.67;;
7879;SDS011;3985;49.366;2.738;2022-12-18T14:08:32;47.67;;;42.00;;
7879;SDS011;3985;49.366;2.738;2022-12-18T14:11:03;37.33;;;37.33;;
7879;SDS011;3985;49.366;2.738;2022-12-18T14:13:32;43.67;;;36.00;;
7879;SDS011;3985;49.366;2.738;2022-12-18T14:16:03;43.00;;;37.00;;
7879;SDS011;3985;49.366;2.738;2022-12-18T14:18:36;42.33;;;35.67;;
7879;SDS011;3985;49.366;2.738;2022-12-18T14:21:14;46.00;;;41.67;;
7879;SDS011;3985;49.366;2.738;2022-12-18T14:23:46;42.33;;;38.67;;
7879;SDS011;3985;49.366;2.738;2022-12-18T14:26:20;39.67;;;35.33;;
7879;SDS011;3985;49.366;2.738;2022-12-18T14:28:50;46.67;;;38.67;;
7879;SDS011;3985;49.366;2.738;2022-12-18T14:31:19;42.33;;;39.33;;
7879;SDS011;3985;49.366;2.738;2022-12-18T14:33:49;47.33;;;39.33;;
7879;SDS011;3985;49.366;2.738;2022-12-18T14:36:17;49.00;;;44.00;;
7879;SDS011;3985;49.366;2.738;2022-12-18T14:38:48;41.33;;;37.33;;
7879;SDS011;3985;49.366;2.738;2022-12-18T14:41:17;56.67;;;44.33;;
7879;SDS011;3985;49.366;2.738;2022-12-18T14:43:46;48.67;;;41.00;;
7879;SDS011;3985;49.366;2.738;2022-12-18T14:46:25;44.67;;;38.00;;
7879;SDS011;3985;49.366;2.738;2022-12-18T14:48:57;66.00;;;47.67;;
7879;SDS011;3985;49.366;2.738;2022-12-18T14:51:24;56.00;;;48.00;;
7879;SDS011;3985;49.366;2.738;2022-12-18T14:53:53;46.00;;;35.33;;
7879;SDS011;3985;49.366;2.738;2022-12-18T14:56:23;63.33;;;48.33;;
7879;SDS011;3985;49.366;2.738;2022-12-18T14:58:52;49.67;;;41.67;;
7879;SDS011;3985;49.366;2.738;2022-12-18T15:01:25;47.33;;;43.67;;
7879;SDS011;3985;49.366;2.738;2022-12-18T15:03:54;50.67;;;45.67;;
7879;SDS011;3985;49.366;2.738;2022-12-18T15:06:25;54.33;;;46.33;;
7879;SDS011;3985;49.366;2.738;2022-12-18T15:08:55;51.33;;;44.00;;
7879;SDS011;3985;49.366;2.738;2022-12-18T15:11:25;44.33;;;41.00;;
7879;SDS011;3985;49.366;2.738;2022-12-18T15:13:59;50.67;;;45.33;;
7879;SDS011;3985;49.366;2.738;2022-12-18T15:16:40;61.33;;;49.33;;
7879;SDS011;3985;49.366;2.738;2022-12-18T15:19:09;65.33;;;50.00;;
7879;SDS011;3985;49.366;2.738;2022-12-18T15:21:36;59.33;;;49.00;;
7879;SDS011;3985;49.366;2.738;2022-12-18T15:24:13;67.00;;;49.67;;
7879;SDS011;3985;49.366;2.738;2022-12-18T15:26:44;54.67;;;47.67;;
7879;SDS011;3985;49.366;2.738;2022-12-18T15:29:15;50.33;;;44.67;;
7879;SDS011;3985;49.366;2.738;2022-12-18T15:32:00;53.00;;;42.00;;
7879;SDS011;3985;49.366;2.738;2022-12-18T15:34:30;53.00;;;41.33;;
7879;SDS011;3985;49.366;2.738;2022-12-18T15:36:58;49.33;;;43.67;;
7879;SDS011;3985;49.366;2.738;2022-12-18T15:39:26;54.33;;;48.00;;